Latest Weather Observations for Kingscote

IDS60801

Issued at 7:01 pm CDT Friday 20 October 2017 (issued every 30 minutes, with the page automatically refreshed every 10 minutes)

About weather observations | Map of weather stations | Latest weather observations for SA | Other Formats
Station Details ID: 022841 Name: KINGSCOTE AERO Lat: -35.71 Lon: 137.52 Height: 6.23 m
Data from the previous 72 hours. | See also: Recent months at Kingscote
Date/Time
CDT
Temp
°C
App
Temp
°C
Dew
Point
°C
Rel
Hum
%
Delta-T
°C
Wind Press
QNH
hPa
Press
MSL
hPa
Rain since
9am
mm
Dir  Spd
km/h
Gust
km/h
Spd
kts
Gust
kts
20/07:00pm 13.6 8.1 5.7 59 3.7 SSE 24 32 13 17 1031.5 1031.5 0.0
20/06:30pm 14.5 7.8 5.8 56 4.1 SE 30 39 16 21 1031.4 1031.4 0.0
20/06:00pm 15.4 9.4 5.3 51 4.7 SSE 26 37 14 20 1031.3 1031.3 0.0
20/05:30pm 15.8 10.1 5.1 49 5.0 S 24 33 13 18 1031.2 1031.2 0.0
20/05:00pm 16.6 11.1 6.1 50 5.1 S 24 33 13 18 1031.0 1031.0 0.0
20/04:30pm 16.7 10.6 6.5 51 5.0 S 28 39 15 21 1030.8 1030.8 0.0
20/04:00pm 17.1 11.4 6.6 50 5.2 SSE 26 37 14 20 1030.9 1030.9 0.0
20/03:30pm 16.8 10.6 7.7 55 4.5 SE 30 39 16 21 1031.1 1031.1 0.0
20/03:00pm 16.5 10.8 6.9 53 4.7 SSE 26 39 14 21 1031.3 1031.3 0.0
20/02:30pm 17.6 12.5 7.6 52 5.0 SSE 24 32 13 17 1031.3 1031.3 0.0
20/02:00pm 17.1 11.6 6.0 48 5.4 SSE 24 35 13 19 1031.4 1031.4 0.0
20/01:30pm 17.9 13.5 6.4 47 5.6 SE 19 28 10 15 1031.6 1031.6 0.0
20/01:00pm 17.6 12.6 4.6 42 6.2 SSE 20 32 11 17 1031.7 1031.7 0.0
20/12:30pm 17.2 12.2 4.5 43 6.0 SSE 20 30 11 16 1032.0 1032.0 0.0
20/12:00pm 17.4 12.6 5.4 45 5.7 SE 20 33 11 18 1032.2 1032.2 0.0
20/11:30am 16.5 11.4 4.2 44 5.7 SE 20 28 11 15 1032.4 1032.4 0.0
20/11:00am 15.5 10.1 4.3 47 5.2 SE 22 35 12 19 1032.6 1032.6 0.0
20/10:30am 15.5 10.2 4.8 49 5.0 SE 22 32 12 17 1032.4 1032.4 0.0
20/10:00am 15.5 11.9 6.8 56 4.3 S 15 22 8 12 1032.3 1032.3 0.0
20/09:30am 14.0 8.8 7.1 63 3.3 SSE 24 30 13 16 1032.2 1032.2 0.0
20/09:00am 14.2 9.1 5.8 57 4.0 SSE 22 28 12 15 1031.8 1031.8 0.0
20/08:30am 14.4 9.3 4.1 50 4.7 SSE 20 28 11 15 1031.5 1031.5 0.0
20/08:00am 13.5 9.1 4.6 55 4.1 S 17 20 9 11 1031.3 1031.3 0.0
20/07:30am 12.5 9.4 7.2 70 2.5 S 13 19 7 10 1031.0 1031.0 0.0
20/07:00am 11.4 8.8 7.9 79 1.7 S 11 13 6 7 1030.4 1030.4 0.0
20/06:30am 9.9 7.4 6.4 79 1.6 SSW 9 13 5 7 1030.1 1030.1 0.0
20/06:00am 8.8 5.7 5.5 80 1.5 SW 11 13 6 7 1029.8 1029.8 0.0
20/05:30am 8.5 5.3 4.9 78 1.6 SSW 11 13 6 7 1029.4 1029.4 0.0
20/05:00am 9.6 6.2 5.8 77 1.7 S 13 17 7 9 1029.1 1029.1 0.0
20/04:30am 10.7 7.5 6.8 77 1.8 S 13 17 7 9 1028.9 1028.9 0.0
20/04:00am 9.4 7.5 7.5 88 0.9 WSW 7 9 4 5 1028.7 1028.7 0.0
20/03:30am 9.0 7.0 7.3 89 0.8 SW 7 9 4 5 1028.6 1028.6 0.0
20/03:00am 8.3 5.5 6.8 90 0.7 W 11 13 6 7 1028.4 1028.4 0.0
20/02:30am 8.8 6.0 7.1 89 0.8 W 11 11 6 6 1028.3 1028.3 0.0
20/02:00am 9.2 6.9 7.3 88 0.9 WSW 9 11 5 6 1028.4 1028.4 0.0
20/01:30am 9.8 7.9 7.6 86 1.0 SW 7 9 4 5 1028.5 1028.5 0.0
20/01:00am 9.7 7.4 7.6 87 1.0 SW 9 11 5 6 1028.6 1028.6 0.0
20/12:30am 9.8 7.9 7.6 86 1.0 W 7 11 4 6 1028.5 1028.5 0.0
20/12:00am 9.9 6.9 7.5 85 1.1 SW 13 19 7 10 1028.4 1028.4 0.0
 
Date/Time
CDT
Temp
°C
App
Temp
°C
Dew
Point
°C
Rel
Hum
%
Delta-T
°C
Wind Press
QNH
hPa
Press
MSL
hPa
Rain since
9am
mm
Dir  Spd
km/h
Gust
km/h
Spd
kts
Gust
kts
19/11:30pm 9.7 7.3 7.0 83 1.3 WNW 9 9 5 5 1028.2 1028.2 0.0
19/11:00pm 9.9 7.5 7.2 83 1.3 WNW 9 11 5 6 1028.1 1028.1 0.0
19/10:30pm 10.6 8.7 7.5 81 1.5 W 7 9 4 5 1028.1 1028.1 0.0
19/10:00pm 11.2 10.3 7.7 79 1.7 SW 2 7 1 4 1027.8 1027.8 0.0
19/09:30pm 10.7 8.8 7.4 80 1.6 SW 7 9 4 5 1027.6 1027.6 0.0
19/09:00pm 11.1 8.4 7.4 78 1.8 SW 11 11 6 6 1027.5 1027.5 0.0
19/08:30pm 12.8 9.0 7.7 71 2.5 SW 17 20 9 11 1027.0 1027.0 0.0
19/08:00pm 13.7 9.5 8.1 69 2.8 SW 20 28 11 15 1026.4 1026.4 0.0
19/07:30pm 14.8 10.0 9.0 68 2.9 SW 24 37 13 20 1025.9 1025.9 0.0
19/07:00pm 15.7 11.5 8.2 61 3.8 SSW 20 32 11 17 1025.4 1025.4 0.0
19/06:30pm 16.3 11.2 7.8 57 4.2 SW 24 32 13 17 1024.9 1024.9 0.0
19/06:00pm 16.4 10.7 8.4 59 4.0 SSW 28 37 15 20 1024.6 1024.6 0.0
19/05:30pm 17.8 11.6 7.8 52 5.0 SW 30 39 16 21 1024.0 1024.0 0.0
19/05:00pm 18.4 12.5 7.5 49 5.5 SSW 28 41 15 22 1023.6 1023.6 0.0
19/04:30pm 19.2 14.1 7.6 47 5.9 SW 24 39 13 21 1023.3 1023.3 0.0
19/04:00pm 19.4 13.6 9.3 52 5.3 SW 30 41 16 22 1023.0 1023.0 0.0
19/03:30pm 20.0 14.1 7.7 45 6.3 WSW 28 37 15 20 1022.9 1022.9 0.0
19/03:00pm 20.8 14.8 8.8 46 6.3 SSW 30 41 16 22 1022.6 1022.6 0.0
19/02:30pm 20.4 15.7 9.3 49 5.9 SSW 24 37 13 20 1022.6 1022.6 0.0
19/02:00pm 20.1 15.4 9.1 49 5.8 SW 24 37 13 20 1022.7 1022.7 0.0
19/01:30pm 20.0 15.2 9.0 49 5.8 SW 24 33 13 18 1022.5 1022.5 0.0
19/01:00pm 19.9 15.2 9.2 50 5.7 SW 24 32 13 17 1022.4 1022.4 0.0
19/12:30pm 19.7 15.5 9.6 52 5.3 SW 22 33 12 18 1022.4 1022.4 0.0
19/12:00pm 18.7 14.0 9.2 54 5.0 SW 24 35 13 19 1022.6 1022.6 0.0
19/11:30am 18.3 13.6 9.4 56 4.7 WSW 24 35 13 19 1022.6 1022.6 0.0
19/11:00am 17.8 12.9 9.9 60 4.2 SW 26 35 14 19 1022.4 1022.4 0.0
19/10:30am 17.4 12.3 9.3 59 4.2 SW 26 39 14 21 1021.9 1021.9 0.0
19/10:00am 17.4 12.4 11.0 66 3.4 SW 28 41 15 22 1021.5 1021.5 0.0
19/09:30am 16.7 12.0 10.8 68 3.1 SW 26 37 14 20 1021.1 1021.1 0.0
19/09:00am 15.5 11.3 11.1 75 2.3 SW 24 32 13 17 1020.6 1020.6 1.8
19/08:30am 14.7 10.4 10.7 77 2.1 SW 24 32 13 17 1020.1 1020.1 1.8
19/08:00am 14.7 10.7 11.7 82 1.6 SW 24 32 13 17 1019.5 1019.5 1.8
19/07:30am 14.7 11.6 12.2 85 1.4 SW 20 26 11 14 1019.0 1019.0 1.8
19/07:00am 14.5 11.4 12.2 86 1.2 SW 20 28 11 15 1018.3 1018.3 1.8
19/06:48am 14.6 11.8 12.5 87 1.1 SW 19 24 10 13 1017.8 1017.8 1.8
19/06:30am 14.7 10.9 12.4 86 1.3 SW 24 33 13 18 1017.2 1017.2 1.8
19/06:00am 14.3 11.5 12.7 90 0.9 SW 19 28 10 15 1016.8 1016.8 1.8
19/05:42am 14.1 12.1 12.7 91 0.8 SW 15 20 8 11 1016.4 1016.4 1.8
19/05:30am 13.9 11.5 12.6 92 0.7 SW 17 22 9 12 1016.1 1016.1 1.8
19/05:00am 14.3 11.4 12.9 91 0.8 SW 20 26 11 14 1015.4 1015.4 1.8
19/04:30am 14.8 12.1 12.8 88 1.1 SW 19 24 10 13 1014.8 1014.8 1.8
19/04:00am 15.9 13.2 13.0 83 1.6 SSW 19 26 10 14 1014.6 1014.6 1.8
19/03:30am 18.0 18.4 16.2 89 1.1 NW 9 13 5 7 1014.5 1014.5 1.8
19/03:00am 18.3 18.6 15.9 86 1.4 N 9 15 5 8 1014.4 1014.4 1.8
19/02:30am 18.4 19.9 15.6 84 1.6 W 2 7 1 4 1013.9 1013.9 1.8
19/02:00am 18.6 17.8 16.0 85 1.5 N 15 20 8 11 1013.7 1013.7 1.8
19/01:30am 18.2 18.9 16.2 88 1.2 NW 7 9 4 5 1013.8 1013.8 1.8
19/01:00am 18.4 18.8 16.2 87 1.3 SE 9 17 5 9 1013.7 1013.7 1.8
19/12:30am 19.3 17.6 16.2 82 1.9 N 20 28 11 15 1014.0 1014.0 1.6
19/12:00am 18.7 17.4 16.7 88 1.2 N 19 24 10 13 1013.4 1013.4 1.4
 
Date/Time
CDT
Temp
°C
App
Temp
°C
Dew
Point
°C
Rel
Hum
%
Delta-T
°C
Wind Press
QNH
hPa
Press
MSL
hPa
Rain since
9am
mm
Dir  Spd
km/h
Gust
km/h
Spd
kts
Gust
kts
18/11:30pm 18.8 18.5 16.4 86 1.4 NNE 13 19 7 10 1013.5 1013.5 1.2
18/11:00pm 20.2 19.3 16.8 81 2.1 N 17 20 9 11 1014.4 1014.4 1.0
18/10:30pm 20.4 20.8 17.2 82 2.0 NE 11 15 6 8 1014.6 1014.6 0.0
18/10:00pm 22.0 22.5 14.9 64 4.2 SSW 6 11 3 6 1014.2 1014.2 0.0
18/09:30pm 21.9 22.2 15.0 65 4.1 E 7 11 4 6 1014.5 1014.5 0.0
18/09:00pm 22.8 23.1 14.4 59 4.9 WNW 6 15 3 8 1014.2 1014.2 0.0
18/08:30pm 22.9 22.3 14.5 59 5.0 W 11 17 6 9 1013.5 1013.5 0.0
18/08:00pm 22.5 22.0 14.9 62 4.5 WNW 11 17 6 9 1013.0 1013.0 0.0
18/07:30pm 23.8 19.3 13.9 54 5.8 W 30 39 16 21 1012.6 1012.6 0.0
18/07:00pm 25.1 20.7 13.0 47 7.0 WSW 28 39 15 21 1012.0 1012.0 0.0
18/06:30pm 26.9 23.4 13.3 43 8.0 W 24 41 13 22 1011.9 1011.9 0.0
18/06:00pm 28.2 26.9 14.8 44 8.1 W 15 19 8 10 1011.5 1011.5 0.0
18/05:30pm 29.2 27.3 14.2 40 9.0 WNW 17 24 9 13 1011.3 1011.3 0.0
18/05:00pm 30.3 28.2 13.6 36 10.0 NNW 17 26 9 14 1011.1 1011.1 0.0
18/04:30pm 31.5 29.3 13.3 33 10.9 N 17 24 9 13 1011.1 1011.1 0.0
18/04:00pm 30.9 28.3 13.2 34 10.6 N 19 26 10 14 1011.2 1011.2 0.0
18/03:30pm 31.5 28.0 13.3 33 10.9 NNW 24 33 13 18 1011.5 1011.5 0.0
18/03:00pm 31.8 28.5 14.0 34 10.8 NNW 24 30 13 16 1011.8 1011.8 0.0
18/02:30pm 30.7 26.3 13.0 33 10.5 NNW 28 37 15 20 1012.2 1012.2 0.0
18/02:00pm 30.6 27.1 13.4 35 10.3 NNW 24 33 13 18 1012.6 1012.6 0.0
18/01:30pm 29.9 26.9 13.6 36 9.8 NNW 22 35 12 19 1012.6 1012.6 0.0
18/01:00pm 29.3 24.7 12.3 35 9.9 NNW 28 37 15 20 1012.9 1012.9 0.0
18/12:30pm 29.4 25.4 14.0 39 9.3 NNW 28 46 15 25 1013.2 1013.2 0.0
18/12:00pm 28.9 23.9 12.3 36 9.7 NNW 30 48 16 26 1013.3 1013.3 0.0
18/11:35am 29.4 25.0 12.8 36 9.8 N 28 46 15 25 1013.5 1013.5 0.0
18/11:30am 29.2 25.6 13.0 37 9.6 N 24 35 13 19 1013.5 1013.5 0.0
18/11:00am 28.1 24.1 14.0 42 8.4 N 28 41 15 22 1013.8 1013.8 0.0
18/10:30am 27.3 24.3 14.7 46 7.6 NNW 24 41 13 22 1014.0 1014.0 0.0
18/10:00am 24.0 21.5 14.1 54 5.8 NNW 20 26 11 14 1014.0 1014.0 0.0
18/09:30am 24.2 20.9 14.0 53 6.0 N 24 32 13 17 1013.8 1013.8 0.0
18/09:00am 24.3 21.4 14.1 53 6.0 N 22 35 12 19 1013.6 1013.6 0.0
18/08:30am 23.6 21.0 13.8 54 5.7 N 20 32 11 17 1013.6 1013.6 0.0
18/08:00am 22.9 20.5 13.7 56 5.4 N 19 30 10 16 1013.6 1013.6 0.0
18/07:30am 21.3 19.6 13.5 61 4.5 NNW 15 22 8 12 1013.4 1013.4 0.0
18/07:00am 20.2 18.8 13.4 65 3.9 N 13 20 7 11 1013.0 1013.0 0.0
18/06:30am 20.6 18.4 13.3 63 4.2 N 17 24 9 13 1012.7 1012.7 0.0
18/06:00am 20.6 18.0 13.1 62 4.3 N 19 26 10 14 1012.4 1012.4 0.0
18/05:30am 20.9 18.1 12.6 59 4.7 N 19 28 10 15 1012.2 1012.2 0.0
18/05:00am 20.1 18.8 12.6 62 4.2 NNE 11 19 6 10 1012.2 1012.2 0.0
18/04:30am 18.0 18.2 12.9 72 2.9 N 4 9 2 5 1012.4 1012.4 0.0
18/04:00am 16.2 15.7 12.7 80 1.9 NW 7 9 4 5 1012.4 1012.4 0.0
18/03:30am 17.6 16.9 12.1 70 3.0 NNW 7 9 4 5 1012.6 1012.6 0.0
18/03:00am 21.1 17.6 13.5 62 4.4 NNE 24 39 13 21 1012.5 1012.5 0.0
18/02:37am 20.2 19.5 15.4 74 2.8 NNE 13 24 7 13 1012.4 1012.4 0.0
18/02:30am 15.0 14.6 12.3 84 1.5 WNW 6 11 3 6 1012.6 1012.6 0.0
18/02:13am 15.3 14.3 10.9 75 2.3 W 7 17 4 9 1012.7 1012.7 0.0
18/02:00am 20.3 19.5 15.1 72 3.1 NNE 13 22 7 12 1012.8 1012.8 0.0
18/01:57am 19.4 19.5 15.5 78 2.3 NNE 9 20 5 11 1012.8 1012.8 0.0
18/01:30am 14.3 14.9 11.8 85 1.3 CALM 0 0 0 0 1013.5 1013.5 0.0
18/01:00am 13.9 14.3 11.4 85 1.3 CALM 0 0 0 0 1013.9 1013.9 0.0
18/12:30am 13.7 13.9 10.7 82 1.6 CALM 0 6 0 3 1013.9 1013.9 0.0
18/12:00am 15.9 14.7 11.5 75 2.4 NE 9 11 5 6 1014.1 1014.1 0.0
 
Date/Time
CDT
Temp
°C
App
Temp
°C
Dew
Point
°C
Rel
Hum
%
Delta-T
°C
Wind Press
QNH
hPa
Press
MSL
hPa
Rain since
9am
mm
Dir  Spd
km/h
Gust
km/h
Spd
kts
Gust
kts
17/11:30pm 14.6 14.0 11.6 82 1.6 N 6 9 3 5 1014.3 1014.3 0.0
17/11:00pm 15.3 15.8 11.5 78 2.0 CALM 0 0 0 0 1014.4 1014.4 0.0
17/10:30pm 16.7 17.3 12.0 74 2.6 CALM 0 0 0 0 1014.7 1014.7 0.0
17/10:00pm 17.1 17.7 12.0 72 2.8 CALM 0 0 0 0 1014.7 1014.7 0.0
17/09:30pm 18.3 19.0 12.1 67 3.4 CALM 0 0 0 0 1014.7 1014.7 0.0
17/09:00pm 19.4 17.9 11.9 62 4.2 ENE 11 13 6 7 1014.4 1014.4 0.0
17/08:30pm 20.4 19.1 12.4 60 4.5 NE 11 13 6 7 1014.0 1014.0 0.0
17/08:00pm 20.1 18.7 12.3 61 4.4 ENE 11 11 6 6 1013.8 1013.8 0.0
17/07:30pm 21.0 19.3 12.4 58 4.8 ENE 13 15 7 8 1013.5 1013.5 0.0

Other Formats:

Comma delimited format used in spreadsheet applications
http://www.bom.gov.au/fwo/IDS60801/IDS60801.95807.axf

JavaScript Object Notation format (JSON) in row-major order
http://www.bom.gov.au/fwo/IDS60801/IDS60801.95807.json